Time;durP1;ratioP1;P1;durP2;ratioP2;P2;SDS_P1;SDS_P2;PMS_P1;PMS_P2;Temp;Humidity;BMP_temperature;BMP_pressure;BME280_temperature;BME280_humidity;BME280_pressure;Samples;Min_cycle;Max_cycle;Signal;HPM_P1;HPM_P2
2020/12/24 00:02:09;;;;;;;8.57;1.00;;;;;;;9.69;89.46;100208.22;4987058;28;20042;-73
2020/12/24 00:04:34;;;;;;;11.05;1.20;;;;;;;9.59;89.26;100212.50;4990548;28;20064;-72
2020/12/24 00:06:59;;;;;;;18.17;1.77;;;;;;;9.53;90.04;100204.00;4972578;28;20037;-72
2020/12/24 00:09:25;;;;;;;12.05;1.70;;;;;;;9.53;89.97;100207.56;4993273;28;20107;-72
2020/12/24 00:11:50;;;;;;;17.00;1.58;;;;;;;9.45;90.79;100204.53;4973258;28;20049;-72
2020/12/24 00:14:15;;;;;;;9.63;1.27;;;;;;;9.59;89.10;100199.09;4970143;28;20453;-73
2020/12/24 00:16:41;;;;;;;10.90;1.60;;;;;;;9.52;90.28;100203.16;4985743;28;20030;-72
2020/12/24 00:19:06;;;;;;;10.55;1.35;;;;;;;9.61;89.94;100201.69;4967107;28;20030;-72
2020/12/24 00:21:39;;;;;;;6.95;1.88;;;;;;;9.45;90.51;100201.00;4972108;28;20037;-73
2020/12/24 00:24:05;;;;;;;;;;;;;;;9.58;89.17;100205.41;4982397;28;20630;-72
2020/12/24 00:26:31;;;;;;;7.05;1.00;;;;;;;9.51;90.19;100203.25;4991916;28;19922;-72
2020/12/24 00:28:56;;;;;;;7.22;1.10;;;;;;;9.58;90.21;100199.19;4988127;28;20049;-72
2020/12/24 00:31:22;;;;;;;8.98;1.48;;;;;;;9.53;90.59;100191.47;4982989;28;20085;-72
2020/12/24 00:33:47;;;;;;;14.85;1.48;;;;;;;9.43;91.03;100190.41;4974479;28;20499;-72
2020/12/24 00:36:13;;;;;;;17.02;1.55;;;;;;;9.44;92.01;100186.75;4971515;28;20042;-72
2020/12/24 00:38:38;;;;;;;12.93;2.05;;;;;;;9.53;91.26;100188.81;4986576;28;20134;-72
2020/12/24 00:41:06;;;;;;;8.65;1.00;;;;;;;9.59;90.35;100192.88;4986823;28;20035;-72
2020/12/24 00:43:31;;;;;;;15.60;1.50;;;;;;;9.61;89.67;100185.59;4983149;28;20093;-72
2020/12/24 00:45:57;;;;;;;15.75;1.52;;;;;;;9.59;90.34;100191.06;4983275;28;20042;-72
2020/12/24 00:48:22;;;;;;;9.52;1.33;;;;;;;9.62;90.10;100190.88;4997001;28;20026;-72
2020/12/24 00:50:47;;;;;;;9.50;1.42;;;;;;;9.51;90.84;100182.69;4970578;28;20084;-72
2020/12/24 00:53:13;;;;;;;10.40;1.48;;;;;;;9.39;90.73;100182.66;4973304;28;20410;-72
2020/12/24 00:55:38;;;;;;;12.18;2.78;;;;;;;9.51;90.57;100171.09;4972465;28;20030;-72
2020/12/24 00:58:04;;;;;;;27.17;2.60;;;;;;;9.47;91.35;100162.44;4989600;28;20030;-72
2020/12/24 01:00:31;;;;;;;17.73;1.60;;;;;;;9.49;90.59;100173.06;4975515;28;20031;-72
2020/12/24 01:02:57;;;;;;;8.88;1.55;;;;;;;9.42;90.99;100169.94;4992443;28;20509;-72
2020/12/24 01:05:22;;;;;;;13.60;2.30;;;;;;;9.46;90.59;100168.75;4991468;28;20034;-73
2020/12/24 01:07:47;;;;;;;14.50;1.85;;;;;;;9.37;90.87;100163.19;4980026;28;20083;-72
2020/12/24 01:10:13;;;;;;;11.43;1.35;;;;;;;9.47;89.71;100165.09;4991224;28;20073;-73
2020/12/24 01:12:38;;;;;;;10.85;2.13;;;;;;;9.45;89.53;100161.66;4978050;28;20063;-73
2020/12/24 01:15:09;;;;;;;13.00;1.35;;;;;;;9.37;90.24;100161.34;4999209;28;20034;-72
2020/12/24 01:17:35;;;;;;;13.23;1.75;;;;;;;9.45;89.12;100160.81;4991664;28;20415;-73
2020/12/24 01:20:01;;;;;;;9.68;1.52;;;;;;;9.33;90.29;100158.00;4991862;28;20053;-73
2020/12/24 01:22:27;;;;;;;12.07;1.45;;;;;;;9.40;90.65;100153.09;4991455;28;20034;-72
2020/12/24 01:24:52;;;;;;;17.95;2.15;;;;;;;9.41;90.13;100154.81;4990480;28;20053;-72
2020/12/24 01:27:18;;;;;;;9.57;1.75;;;;;;;9.40;91.11;100150.41;4989838;28;20044;-73
2020/12/24 01:29:44;;;;;;;10.80;1.27;;;;;;;9.44;89.94;100149.25;4974404;28;20038;-73
2020/12/24 01:32:09;;;;;;;22.25;1.90;;;;;;;9.36;90.76;100165.00;4991030;28;20045;-72
2020/12/24 01:34:34;;;;;;;15.00;2.13;;;;;;;9.34;91.06;100153.50;4994860;28;20029;-72
2020/12/24 01:37:01;;;;;;;16.33;1.60;;;;;;;9.38;89.50;100149.66;4985005;28;20498;-72
2020/12/24 01:39:27;;;;;;;12.27;2.22;;;;;;;9.34;90.85;100156.19;4989990;28;20030;-72
2020/12/24 01:41:53;;;;;;;16.10;1.85;;;;;;;9.37;90.67;100145.28;4997997;28;20046;-72
2020/12/24 01:44:18;;;;;;;9.32;1.60;;;;;;;9.38;90.83;100146.16;4959237;28;20044;-72
2020/12/24 01:46:44;;;;;;;15.15;1.40;;;;;;;9.31;90.95;100143.88;4992205;28;20070;-72
2020/12/24 01:49:09;;;;;;;15.70;1.42;;;;;;;9.33;91.35;100143.75;4990378;28;20583;-72
2020/12/24 01:51:35;;;;;;;17.30;2.42;;;;;;;9.40;89.78;100145.06;4988660;28;20117;-72
2020/12/24 01:54:00;;;;;;;14.55;1.95;;;;;;;9.47;89.38;100142.81;4983398;28;20038;-72
2020/12/24 01:56:27;;;;;;;13.32;1.85;;;;;;;9.43;89.03;100150.22;4972178;28;20037;-72
2020/12/24 01:58:54;;;;;;;13.50;1.48;;;;;;;9.42;89.15;100145.81;4990287;28;20040;-72
2020/12/24 02:01:20;;;;;;;16.15;2.03;;;;;;;9.43;89.38;100152.91;4989307;28;20113;-72
2020/12/24 02:03:45;;;;;;;10.45;1.55;;;;;;;9.51;88.46;100145.19;4994148;28;20541;-72
2020/12/24 02:06:11;;;;;;;15.45;1.90;;;;;;;9.46;88.56;100152.69;4991129;28;20116;-72
2020/12/24 02:08:38;;;;;;;20.88;3.65;;;;;;;9.44;88.68;100157.31;4979829;28;20033;-72
2020/12/24 02:11:04;;;;;;;17.52;1.75;;;;;;;9.39;89.06;100151.38;4990004;28;20105;-72
2020/12/24 02:13:29;;;;;;;18.77;1.67;;;;;;;9.33;89.46;100149.13;4973031;28;20030;-72
2020/12/24 02:15:55;;;;;;;15.73;2.10;;;;;;;9.42;89.14;100150.31;4990510;28;20049;-72
2020/12/24 02:18:20;;;;;;;15.52;1.65;;;;;;;9.41;88.48;100154.81;4987823;28;20230;-72
2020/12/24 02:20:46;;;;;;;10.25;1.73;;;;;;;9.40;89.13;100141.53;4982272;28;20036;-72
2020/12/24 02:23:12;;;;;;;17.20;2.35;;;;;;;9.41;88.87;100154.81;4990278;28;20030;-72
2020/12/24 02:25:40;;;;;;;13.90;1.42;;;;;;;9.38;88.19;100138.94;4988210;28;20038;-72
2020/12/24 02:28:06;;;;;;;15.52;1.48;;;;;;;9.40;88.35;100142.38;4991378;28;20129;-72
2020/12/24 02:30:31;;;;;;;15.18;2.38;;;;;;;9.40;89.74;100152.25;4991948;28;20046;-72
2020/12/24 02:32:57;;;;;;;9.80;1.45;;;;;;;9.35;90.02;100139.16;4996244;28;20415;-72
2020/12/24 02:35:22;;;;;;;14.18;1.73;;;;;;;9.36;89.50;100146.25;4990485;28;20030;-72
2020/12/24 02:37:47;;;;;;;13.07;1.48;;;;;;;9.34;89.48;100142.81;4992366;28;20035;-72
2020/12/24 02:40:13;;;;;;;12.73;1.27;;;;;;;9.34;89.73;100132.09;4991117;28;20045;-72
2020/12/24 02:42:38;;;;;;;11.50;1.48;;;;;;;9.26;89.49;100134.41;4971958;28;20041;-72
2020/12/24 02:45:05;;;;;;;18.00;2.80;;;;;;;9.27;90.23;100122.75;4989632;28;20562;-72
2020/12/24 02:47:30;;;;;;;21.60;2.40;;;;;;;9.24;89.50;100110.44;4971325;28;20137;-72
2020/12/24 02:49:57;;;;;;;12.57;1.30;;;;;;;9.20;89.59;100114.28;4989725;28;20084;-72
2020/12/24 02:52:23;;;;;;;8.20;1.40;;;;;;;9.23;89.41;100113.22;4986426;28;20475;-72
2020/12/24 02:54:48;;;;;;;9.43;1.42;;;;;;;9.14;89.27;100119.19;4971380;28;20053;-72
2020/12/24 02:57:13;;;;;;;9.13;2.00;;;;;;;9.14;89.42;100114.69;4991212;28;20030;-72
2020/12/24 02:59:39;;;;;;;11.23;2.28;;;;;;;9.09;89.79;100121.31;5001591;28;20045;-72
2020/12/24 03:02:05;;;;;;;14.55;2.53;;;;;;;9.00;90.64;100116.63;4992295;28;20112;-72
2020/12/24 03:04:31;;;;;;;12.93;1.38;;;;;;;9.09;90.10;100122.19;4995191;28;20034;-72
2020/12/24 03:06:56;;;;;;;16.63;1.55;;;;;;;9.04;90.53;100120.78;4989065;28;20050;-72
2020/12/24 03:09:21;;;;;;;15.98;1.45;;;;;;;9.04;90.59;100118.09;4988666;28;20436;-72
2020/12/24 03:11:50;;;;;;;11.77;1.75;;;;;;;9.07;91.09;100123.28;4991818;28;20156;-72
2020/12/24 03:14:17;;;;;;;12.38;1.80;;;;;;;9.02;90.83;100125.38;4970542;28;20030;-72
2020/12/24 03:16:43;;;;;;;15.48;1.45;;;;;;;9.05;90.62;100118.00;4970568;28;20046;-72
2020/12/24 03:19:08;;;;;;;6.60;1.40;;;;;;;9.07;91.01;100116.09;4989693;28;20033;-72
2020/12/24 03:21:34;;;;;;;5.75;1.33;;;;;;;8.96;91.53;100118.63;4988618;28;20034;-72
2020/12/24 03:23:59;;;;;;;14.52;1.77;;;;;;;9.00;91.32;100114.78;4971176;28;20096;-72
2020/12/24 03:26:24;;;;;;;10.00;1.08;;;;;;;9.06;91.14;100124.22;4977301;28;20049;-73
2020/12/24 03:28:50;;;;;;;9.50;1.20;;;;;;;9.10;91.12;100117.69;4987858;28;20041;-72
2020/12/24 03:31:21;;;;;;;17.08;2.90;;;;;;;8.98;91.69;100119.38;4987872;28;20046;-73
2020/12/24 03:33:47;;;;;;;14.20;1.60;;;;;;;9.04;91.75;100120.78;4989459;28;20558;-72
2020/12/24 03:36:12;;;;;;;11.15;1.65;;;;;;;9.09;91.56;100121.31;4987257;28;20146;-72
2020/12/24 03:38:37;;;;;;;10.43;1.40;;;;;;;9.00;92.84;100116.63;4987756;28;20033;-72
2020/12/24 03:41:03;;;;;;;13.25;1.48;;;;;;;8.85;93.78;100103.28;4971181;28;20026;-72
2020/12/24 03:43:28;;;;;;;18.90;2.30;;;;;;;8.87;93.95;100105.88;4988002;28;20038;-72
2020/12/24 03:45:53;;;;;;;12.65;1.73;;;;;;;8.96;94.42;100115.94;4991224;28;20120;-72
2020/12/24 03:48:19;;;;;;;13.05;1.75;;;;;;;8.93;94.72;100117.03;5003266;28;20033;-72
2020/12/24 03:50:45;;;;;;;24.33;1.40;;;;;;;8.81;95.68;100106.28;4975807;28;20659;-72
2020/12/24 03:53:10;;;;;;;14.30;2.60;;;;;;;8.92;96.24;100109.94;4988941;28;20473;-72
2020/12/24 03:55:35;;;;;;;17.73;1.77;;;;;;;8.90;96.51;100106.50;4989114;28;20049;-72
2020/12/24 03:58:01;;;;;;;13.20;1.70;;;;;;;8.87;96.82;100101.38;4986706;28;20049;-72
2020/12/24 04:00:26;;;;;;;16.10;1.25;;;;;;;8.82;98.18;100098.16;4992475;28;20541;-72
2020/12/24 04:02:52;;;;;;;14.48;1.90;;;;;;;8.74;98.72;100099.63;4988799;28;20053;-72
2020/12/24 04:05:17;;;;;;;16.23;2.35;;;;;;;8.79;97.98;100095.66;4973328;28;20030;-72
2020/12/24 04:07:43;;;;;;;17.65;1.83;;;;;;;8.83;97.30;100094.50;4970930;28;20133;-72
2020/12/24 04:10:08;;;;;;;14.50;1.70;;;;;;;8.64;98.25;100099.34;4986652;28;20088;-72
2020/12/24 04:12:34;;;;;;;12.45;1.60;;;;;;;8.66;98.35;100108.16;4994567;28;20501;-72
2020/12/24 04:14:59;;;;;;;14.30;1.20;;;;;;;8.64;98.17;100102.03;4987461;28;20175;-72
2020/12/24 04:17:26;;;;;;;13.25;1.85;;;;;;;8.66;97.96;100097.44;4973451;28;20042;-72
2020/12/24 04:19:51;;;;;;;12.73;1.50;;;;;;;8.59;98.71;100101.47;5002624;28;21929;-72
2020/12/24 04:22:16;;;;;;;11.38;1.55;;;;;;;8.63;98.61;100103.00;4987961;28;20035;-72
2020/12/24 04:24:42;;;;;;;15.90;1.33;;;;;;;8.53;98.87;100104.56;4987439;28;20060;-72
2020/12/24 04:27:07;;;;;;;7.70;1.13;;;;;;;8.63;98.62;100102.16;4989107;28;20022;-72
2020/12/24 04:29:33;;;;;;;14.25;1.70;;;;;;;8.60;99.29;100105.88;4996918;28;20421;-72
2020/12/24 04:31:58;;;;;;;13.57;1.20;;;;;;;8.52;99.88;100103.69;4999831;28;20069;-72
2020/12/24 04:34:23;;;;;;;8.70;1.90;;;;;;;8.48;100.00;100102.19;4998391;28;20034;-72
2020/12/24 04:36:50;;;;;;;11.13;2.63;;;;;;;8.60;100.00;100103.19;4972886;28;20050;-72
2020/12/24 04:39:15;;;;;;;10.93;1.50;;;;;;;8.57;100.00;100106.09;4993238;28;20030;-72
2020/12/24 04:41:41;;;;;;;18.75;2.00;;;;;;;8.52;100.00;100116.22;4996122;28;20039;-73
2020/12/24 04:44:08;;;;;;;11.07;2.15;;;;;;;8.60;100.00;100108.56;4993388;28;20030;-72
2020/12/24 04:46:35;;;;;;;9.57;1.17;;;;;;;8.57;100.00;100113.25;4974077;28;20092;-72
2020/12/24 04:49:01;;;;;;;12.52;1.30;;;;;;;8.56;100.00;100109.72;4988255;28;20061;-72
2020/12/24 04:51:27;;;;;;;13.15;1.25;;;;;;;8.56;100.00;100104.38;4981466;28;20383;-72
2020/12/24 04:53:53;;;;;;;15.27;1.15;;;;;;;8.55;100.00;100102.66;4998856;28;20046;-72
2020/12/24 04:56:19;;;;;;;10.75;1.30;;;;;;;8.51;100.00;100107.34;4973160;28;20038;-72
2020/12/24 04:58:44;;;;;;;10.40;1.80;;;;;;;8.52;100.00;100102.84;4970547;28;20034;-72
2020/12/24 05:01:17;;;;;;;14.13;3.08;;;;;;;8.39;100.00;100100.09;4991354;28;20128;-72
2020/12/24 05:03:44;;;;;;;11.32;1.35;;;;;;;8.37;100.00;100103.84;4988943;28;20065;-72
2020/12/24 05:06:16;;;;;;;20.75;2.85;;;;;;;8.46;100.00;100103.25;4973453;28;20038;-73
2020/12/24 05:08:53;;;;;;;12.38;1.55;;;;;;;8.43;100.00;100101.66;4989512;28;20130;-72
2020/12/24 05:11:26;;;;;;;18.13;2.10;;;;;;;8.35;100.00;100092.38;4995566;28;20029;-72
2020/12/24 05:13:52;;;;;;;9.68;1.08;;;;;;;8.36;100.00;100094.97;4972641;28;20073;-72
2020/12/24 05:16:17;;;;;;;12.95;1.77;;;;;;;8.50;100.00;100102.09;4980216;28;20061;-72
2020/12/24 05:18:43;;;;;;;18.85;1.45;;;;;;;8.48;100.00;100093.31;4989708;28;20479;-72
2020/12/24 05:21:09;;;;;;;12.70;1.70;;;;;;;8.44;100.00;100102.50;4996233;28;20037;-72
2020/12/24 05:23:34;;;;;;;15.45;1.48;;;;;;;8.37;100.00;100096.69;4991864;28;20073;-72
2020/12/24 05:26:00;;;;;;;8.57;1.30;;;;;;;8.41;100.00;100092.84;4973043;28;20034;-72
2020/12/24 05:28:28;;;;;;;8.15;1.27;;;;;;;8.42;100.00;100099.91;4990136;28;20093;-72
2020/12/24 05:30:55;;;;;;;13.15;1.38;;;;;;;8.52;100.00;100100.16;4957442;28;20037;-72
2020/12/24 05:33:31;;;;;;;7.57;1.30;;;;;;;8.36;100.00;100094.13;4994467;28;20038;-73
2020/12/24 05:36:16;;;;;;;15.10;2.05;;;;;;;8.36;100.00;100105.66;4994602;28;20441;-72
2020/12/24 05:38:42;;;;;;;9.93;1.20;;;;;;;8.30;100.00;100099.81;5002489;28;20048;-72
2020/12/24 05:41:29;;;;;;;18.35;1.77;;;;;;;8.32;100.00;100101.50;4988165;28;20026;-72
2020/12/24 05:44:04;;;;;;;9.73;1.23;;;;;;;8.33;100.00;100095.16;4991185;28;20474;-72
2020/12/24 05:46:40;;;;;;;10.27;1.45;;;;;;;8.34;100.00;100096.88;4991091;28;20516;-72
2020/12/24 05:49:12;;;;;;;5.43;1.20;;;;;;;8.34;100.00;100090.66;4989939;28;20035;-72
2020/12/24 05:51:39;;;;;;;9.65;1.20;;;;;;;8.27;100.00;100092.84;4974539;28;20398;-72
2020/12/24 05:54:06;;;;;;;10.77;1.60;;;;;;;8.25;100.00;100093.91;4990204;28;20064;-72
2020/12/24 05:56:33;;;;;;;15.00;1.65;;;;;;;8.22;100.00;100091.44;4989968;28;20042;-72
2020/12/24 05:59:02;;;;;;;13.80;1.35;;;;;;;8.31;100.00;100082.88;4971447;28;20038;-72
2020/12/24 06:01:28;;;;;;;12.30;1.20;;;;;;;8.20;100.00;100091.56;4976230;28;20042;-72
2020/12/24 06:04:02;;;;;;;9.30;1.63;;;;;;;8.13;100.00;100099.09;4991532;28;20039;-72
2020/12/24 06:06:47;;;;;;;11.38;1.27;;;;;;;8.13;100.00;100099.09;4989800;28;20161;-72
2020/12/24 06:09:19;;;;;;;15.48;1.27;;;;;;;8.29;100.00;100104.31;4989940;28;20041;-72
2020/12/24 06:11:50;;;;;;;11.93;1.23;;;;;;;8.24;100.00;100101.09;4992185;28;20532;-72
2020/12/24 06:14:30;;;;;;;16.92;3.58;;;;;;;8.30;100.00;100099.81;4957788;28;20403;-72
2020/12/24 06:17:03;;;;;;;12.27;1.63;;;;;;;8.24;100.00;100100.22;4970235;28;20131;-72
2020/12/24 06:19:28;;;;;;;10.00;1.23;;;;;;;8.21;100.00;100097.75;4975399;28;20616;-72
2020/12/24 06:21:54;;;;;;;9.07;1.40;;;;;;;8.17;100.00;100096.22;4971443;28;20034;-72
2020/12/24 06:24:20;;;;;;;11.18;1.13;;;;;;;8.19;100.00;100102.34;4992192;28;20072;-72
2020/12/24 06:26:53;;;;;;;11.77;1.35;;;;;;;8.12;100.00;100100.06;4989215;28;20042;-72
2020/12/24 06:29:19;;;;;;;16.33;1.80;;;;;;;8.17;100.00;100110.44;4987862;28;20093;-72
2020/12/24 06:31:45;;;;;;;10.90;1.00;;;;;;;8.11;100.00;100105.50;4959983;28;20041;-72
2020/12/24 06:34:25;;;;;;;13.35;1.60;;;;;;;8.30;100.00;100106.06;4956277;28;20141;-72
2020/12/24 06:36:52;;;;;;;11.25;1.17;;;;;;;8.15;100.00;100100.84;4989766;28;20137;-72
2020/12/24 06:39:38;;;;;;;8.45;0.90;;;;;;;8.07;100.00;100107.53;4976504;28;20049;-72
2020/12/24 06:42:03;;;;;;;9.15;1.15;;;;;;;8.02;100.00;100096.25;4988936;28;20046;-72
2020/12/24 06:44:46;;;;;;;15.00;1.33;;;;;;;8.13;100.00;100108.94;4990612;28;20057;-72
2020/12/24 06:47:16;;;;;;;12.52;1.10;;;;;;;8.17;100.00;100120.28;4987705;28;20057;-72
2020/12/24 06:49:42;;;;;;;9.48;1.30;;;;;;;8.16;100.00;100118.56;4981444;28;20070;-72
2020/12/24 06:52:08;;;;;;;7.80;1.58;;;;;;;8.17;100.00;100120.28;4982403;28;20038;-72
2020/12/24 06:54:33;;;;;;;14.15;1.13;;;;;;;8.13;100.00;100130.31;4988377;28;20042;-72
2020/12/24 06:57:21;;;;;;;6.20;1.25;;;;;;;7.99;100.00;100133.88;4989236;28;20277;-72
2020/12/24 06:59:48;;;;;;;4.80;1.00;;;;;;;8.05;100.00;100133.47;4987588;28;20523;-72
2020/12/24 07:02:24;;;;;;;11.35;1.75;;;;;;;7.99;100.00;100133.88;4989968;28;20022;-72
2020/12/24 07:04:50;;;;;;;6.63;1.65;;;;;;;7.91;100.00;100138.81;4987952;28;20034;-72
2020/12/24 07:07:44;;;;;;;10.23;1.27;;;;;;;7.95;100.00;100137.69;4973087;28;20030;-72
2020/12/24 07:10:45;;;;;;;8.13;1.30;;;;;;;7.99;100.00;100149.91;4963014;28;20054;-72
2020/12/24 07:13:32;;;;;;;9.18;1.10;;;;;;;7.93;100.00;100155.63;4972680;28;20042;-72
2020/12/24 07:15:57;;;;;;;8.40;1.08;;;;;;;7.90;100.00;100166.50;4972074;28;20038;-72
2020/12/24 07:18:24;;;;;;;10.60;1.10;;;;;;;7.87;100.00;100169.38;5000351;28;20026;-72
2020/12/24 07:20:51;;;;;;;8.68;1.13;;;;;;;7.83;100.00;100165.19;4986939;28;20034;-72
2020/12/24 07:23:28;;;;;;;8.68;1.20;;;;;;;7.84;100.00;100171.38;4987817;28;20034;-72
2020/12/24 07:25:53;;;;;;;10.85;1.25;;;;;;;7.82;100.00;100174.13;4987775;28;20042;-72
2020/12/24 07:28:19;;;;;;;10.07;1.45;;;;;;;7.84;100.00;100172.22;4989613;28;20062;-72
2020/12/24 07:30:55;;;;;;;6.53;1.13;;;;;;;7.87;100.00;100176.53;4988557;28;20038;-72
2020/12/24 07:33:20;;;;;;;9.10;1.15;;;;;;;7.83;100.00;100181.22;5004201;28;20033;-72
2020/12/24 07:35:46;;;;;;;7.80;1.73;;;;;;;7.90;100.00;100187.88;4968945;28;20038;-72
2020/12/24 07:38:11;;;;;;;8.25;2.15;;;;;;;7.87;100.00;100192.56;4969926;28;20068;-72
2020/12/24 07:40:37;;;;;;;13.57;2.00;;;;;;;7.88;100.00;100200.47;4989022;28;20042;-72
2020/12/24 07:43:12;;;;;;;6.88;1.10;;;;;;;7.91;100.00;100197.59;4992230;28;20046;-72
2020/12/24 07:45:39;;;;;;;11.88;1.60;;;;;;;7.92;100.00;100202.00;4989082;28;20549;-72
2020/12/24 07:48:21;;;;;;;14.88;3.22;;;;;;;7.93;100.00;100201.06;5001630;28;20510;-72
2020/12/24 07:50:48;;;;;;;6.28;1.42;;;;;;;7.88;100.00;100199.63;4983580;28;20038;-72
2020/12/24 07:53:18;;;;;;;9.30;1.70;;;;;;;7.96;100.00;100203.50;4988880;28;20113;-72
2020/12/24 07:55:44;;;;;;;7.28;1.23;;;;;;;7.91;100.00;100202.94;4988737;28;20054;-72
2020/12/24 07:58:12;;;;;;;11.40;2.08;;;;;;;7.92;100.00;100210.00;4987418;28;20019;-72
2020/12/24 08:00:53;;;;;;;9.20;1.80;;;;;;;7.90;100.00;100214.59;4989733;28;20037;-72
2020/12/24 08:03:19;;;;;;;17.10;2.85;;;;;;;7.94;100.00;100216.13;4983871;28;21861;-72
2020/12/24 08:05:46;;;;;;;13.55;2.95;;;;;;;7.99;100.00;100251.44;4987414;28;20037;-72
2020/12/24 08:08:13;;;;;;;8.32;2.00;;;;;;;8.05;100.00;100260.91;4988400;28;20061;-72
2020/12/24 08:10:43;;;;;;;4.45;1.40;;;;;;;7.85;100.00;100270.13;5004201;28;20108;-72
2020/12/24 08:13:10;;;;;;;3.05;2.35;;;;;;;7.55;100.00;100283.50;4991047;28;20045;-71
2020/12/24 08:15:44;;;;;;;6.90;3.22;;;;;;;7.43;100.00;100283.34;4988088;28;20034;-72
2020/12/24 08:18:11;;;;;;;5.05;3.53;;;;;;;7.26;100.00;100289.69;4969687;28;20030;-72
2020/12/24 08:21:02;;;;;;;4.90;3.30;;;;;;;7.05;100.00;100299.75;4989179;28;20034;-72
2020/12/24 08:23:38;;;;;;;6.68;3.58;;;;;;;6.90;100.00;100308.63;4984100;28;20032;-72
2020/12/24 08:26:05;;;;;;;5.22;3.67;;;;;;;6.77;100.00;100310.25;4986663;28;20162;-72
2020/12/24 08:28:32;;;;;;;4.65;2.72;;;;;;;6.73;100.00;100322.03;4999327;28;20065;-72
2020/12/24 08:31:00;;;;;;;2.97;2.28;;;;;;;6.67;100.00;100335.69;4987094;28;20503;-72
2020/12/24 08:33:25;;;;;;;3.33;2.10;;;;;;;6.58;100.00;100336.19;4973159;28;20424;-72
2020/12/24 08:35:51;;;;;;;2.90;1.90;;;;;;;6.58;100.00;100331.72;4988660;28;20045;-72
2020/12/24 08:38:18;;;;;;;2.97;1.75;;;;;;;6.49;100.00;100348.22;4985369;28;20114;-72
2020/12/24 08:40:44;;;;;;;2.47;1.70;;;;;;;6.37;100.00;100346.19;4987577;28;20034;-72
2020/12/24 08:43:11;;;;;;;3.80;2.03;;;;;;;6.38;100.00;100364.78;4986733;28;20481;-72
2020/12/24 08:45:44;;;;;;;3.90;3.40;;;;;;;6.27;100.00;100372.50;4988167;28;20089;-71
2020/12/24 08:48:10;;;;;;;6.03;3.90;;;;;;;6.20;100.00;100363.09;4988002;28;20042;-72
2020/12/24 08:50:38;;;;;;;14.40;6.40;;;;;;;6.21;100.00;100388.78;4987544;28;20041;-72
2020/12/24 08:53:06;;;;;;;11.90;5.85;;;;;;;6.18;100.00;100378.28;4970247;28;20089;-72
2020/12/24 08:55:33;;;;;;;28.52;12.55;;;;;;;6.08;100.00;100379.72;4988481;28;20053;-72
2020/12/24 08:57:59;;;;;;;23.75;12.32;;;;;;;6.14;100.00;100390.03;4980188;28;20045;-72
2020/12/24 09:00:25;;;;;;;11.10;6.40;;;;;;;6.13;100.00;100393.66;4982779;28;20049;-72
2020/12/24 09:02:51;;;;;;;7.82;4.80;;;;;;;6.15;100.00;100406.91;4989103;28;20026;-72
2020/12/24 09:05:24;;;;;;;6.60;4.25;;;;;;;6.15;100.00;100407.75;4988124;28;20478;-72
2020/12/24 09:07:50;;;;;;;14.20;7.47;;;;;;;6.08;100.00;100417.00;4981295;28;20034;-72
2020/12/24 09:10:26;;;;;;;17.27;9.48;;;;;;;6.10;100.00;100417.81;4987506;28;20041;-72
2020/12/24 09:13:03;;;;;;;15.30;7.25;;;;;;;6.00;100.00;100436.03;4999531;28;20074;-72
2020/12/24 09:15:29;;;;;;;16.55;7.93;;;;;;;5.99;100.00;100439.63;4956924;28;20108;-72
2020/12/24 09:17:56;;;;;;;38.67;17.63;;;;;;;6.02;100.00;100447.50;4973389;28;22166;-72
2020/12/24 09:20:25;;;;;;;10.75;5.60;;;;;;;6.01;100.00;100455.53;4983707;28;20120;-72
2020/12/24 09:23:03;;;;;;;24.77;12.18;;;;;;;5.91;100.00;100464.94;4973306;28;20039;-72
2020/12/24 09:25:38;;;;;;;16.48;8.30;;;;;;;5.98;100.00;100464.56;4989499;28;20037;-72
2020/12/24 09:28:06;;;;;;;22.67;10.63;;;;;;;6.06;100.00;100466.84;4979945;28;20100;-72
2020/12/24 09:30:32;;;;;;;9.43;6.15;;;;;;;6.04;100.00;100466.06;4988162;28;20030;-72
2020/12/24 09:33:02;;;;;;;13.90;7.95;;;;;;;5.99;100.00;100476.06;4989249;28;20161;-72
2020/12/24 09:35:29;;;;;;;13.80;8.52;;;;;;;5.97;100.00;100483.28;5002936;28;20034;-72
2020/12/24 09:37:55;;;;;;;11.18;7.45;;;;;;;6.06;100.00;100482.81;5002015;28;20034;-72
2020/12/24 09:40:22;;;;;;;12.50;8.25;;;;;;;6.06;100.00;100488.16;4992156;28;20045;-72
2020/12/24 09:42:47;;;;;;;27.55;15.73;;;;;;;6.20;100.00;100507.00;4969629;28;20122;-72
2020/12/24 09:45:13;;;;;;;16.67;8.73;;;;;;;6.25;100.00;100515.63;5003350;28;20593;-72
2020/12/24 09:47:39;;;;;;;25.73;12.90;;;;;;;6.18;100.00;100508.00;4971897;28;20046;-72
2020/12/24 09:50:05;;;;;;;33.20;16.15;;;;;;;6.18;100.00;100527.50;4986200;28;20161;-72
2020/12/24 09:52:31;;;;;;;21.70;10.23;;;;;;;6.31;100.00;100547.28;4985942;28;20486;-72
2020/12/24 09:54:57;;;;;;;14.00;8.00;;;;;;;6.27;100.00;100551.06;4982217;28;20073;-72
2020/12/24 09:57:22;;;;;;;14.10;8.65;;;;;;;6.29;100.00;100556.31;4985685;28;20089;-72
2020/12/24 09:59:48;;;;;;;14.65;9.07;;;;;;;6.34;100.00;100560.47;4984901;28;20038;-72
2020/12/24 10:02:13;;;;;;;23.45;14.40;;;;;;;6.29;100.00;100569.66;4985582;28;20077;-71
2020/12/24 10:04:39;;;;;;;10.30;6.50;;;;;;;6.29;100.00;100580.31;4971829;28;20486;-71
2020/12/24 10:07:04;;;;;;;6.97;4.18;;;;;;;6.22;100.00;100563.75;4982110;28;20046;-72
2020/12/24 10:09:30;;;;;;;8.57;5.65;;;;;;;6.17;100.00;100576.44;4988122;28;20030;-71
2020/12/24 10:11:55;;;;;;;6.15;4.20;;;;;;;6.11;100.00;100582.03;4972355;28;20501;-71
2020/12/24 10:14:21;;;;;;;3.53;2.30;;;;;;;6.05;100.00;100572.53;4987544;28;20345;-71
2020/12/24 10:16:46;;;;;;;14.18;9.77;;;;;;;6.08;100.00;100582.19;4983065;28;20188;-72
2020/12/24 10:19:11;;;;;;;14.10;10.02;;;;;;;6.03;100.00;100586.91;4962389;28;20034;-72
2020/12/24 10:21:41;;;;;;;3.97;2.53;;;;;;;6.04;100.00;100596.63;4985812;28;20034;-71
2020/12/24 10:24:06;;;;;;;4.43;1.90;;;;;;;6.08;100.00;100592.88;4972203;28;20039;-71
2020/12/24 10:26:32;;;;;;;4.80;2.25;;;;;;;6.08;100.00;100590.19;4986755;28;20049;-71
2020/12/24 10:28:57;;;;;;;3.83;2.60;;;;;;;6.04;100.00;100585.97;4995933;28;20035;-71
2020/12/24 10:31:23;;;;;;;3.97;2.92;;;;;;;6.02;100.00;100601.16;4982415;28;20042;-71
2020/12/24 10:33:48;;;;;;;3.20;2.70;;;;;;;6.01;100.00;100602.06;4958706;28;20121;-71
2020/12/24 10:36:20;;;;;;;5.28;3.75;;;;;;;6.03;100.00;100610.88;4988905;28;20030;-71
2020/12/24 10:38:45;;;;;;;4.38;2.83;;;;;;;6.12;100.00;100621.06;4977197;28;20045;-71
2020/12/24 10:41:12;;;;;;;3.50;2.45;;;;;;;6.10;100.00;100617.66;4975023;28;22052;-72
2020/12/24 10:43:37;;;;;;;2.92;2.35;;;;;;;6.08;100.00;100627.50;4951441;28;20049;-72
2020/12/24 10:46:02;;;;;;;4.13;2.60;;;;;;;6.05;100.00;100632.97;4951402;28;20053;-72
2020/12/24 10:48:28;;;;;;;2.75;1.77;;;;;;;6.07;100.00;100639.97;4960061;28;20100;-72
2020/12/24 10:50:55;;;;;;;2.35;1.55;;;;;;;6.03;100.00;100633.06;4970929;28;20121;-72
2020/12/24 10:53:21;;;;;;;3.15;2.10;;;;;;;6.04;100.00;100633.91;4988012;28;20117;-72
2020/12/24 10:55:46;;;;;;;2.35;1.90;;;;;;;6.01;100.00;100639.38;4987417;28;20118;-72
2020/12/24 10:58:11;;;;;;;2.70;1.80;;;;;;;6.02;100.00;100646.44;4974064;28;20116;-72
2020/12/24 11:00:37;;;;;;;4.00;1.88;;;;;;;6.02;100.00;100651.78;4984505;28;20038;-72
2020/12/24 11:03:03;;;;;;;3.05;1.85;;;;;;;5.97;100.00;100659.13;4987206;28;20038;-72
2020/12/24 11:05:28;;;;;;;2.17;1.90;;;;;;;5.89;100.00;100655.94;4972209;28;20049;-72
2020/12/24 11:07:53;;;;;;;4.00;2.13;;;;;;;5.95;100.00;100650.31;4982425;28;20479;-72
2020/12/24 11:10:19;;;;;;;2.97;2.10;;;;;;;5.86;100.00;100656.06;4987286;28;20026;-72
2020/12/24 11:12:44;;;;;;;2.22;2.00;;;;;;;5.95;100.00;100650.31;4987459;28;20034;-71
2020/12/24 11:15:10;;;;;;;2.67;2.35;;;;;;;5.93;100.00;100652.19;4988463;28;20878;-72
2020/12/24 11:17:35;;;;;;;2.33;1.92;;;;;;;6.00;100.00;100654.50;4990290;28;20026;-72
2020/12/24 11:20:00;;;;;;;2.90;2.10;;;;;;;6.03;100.00;100654.38;4987514;28;20464;-72
2020/12/24 11:22:27;;;;;;;2.72;2.38;;;;;;;6.05;100.00;100664.94;4985333;28;20042;-72
2020/12/24 11:24:52;;;;;;;9.57;4.68;;;;;;;6.06;100.00;100664.00;4987248;28;20038;-72
2020/12/24 11:27:18;;;;;;;5.25;3.58;;;;;;;5.93;100.00;100676.16;4987384;28;20030;-72